Time;durP1;ratioP1;P1;durP2;ratioP2;P2;SDS_P1;SDS_P2;PMS_P1;PMS_P2;Temp;Humidity;BMP_temperature;BMP_pressure;BME280_temperature;BME280_humidity;BME280_pressure;Samples;Min_cycle;Max_cycle;Signal;HPM_P1;HPM_P2
2023/06/20 00:00:09;;;;;;;15.77;7.65;;;20.50;99.90;;;;;;5083430;28;20036;-77
2023/06/20 00:02:35;;;;;;;14.13;7.53;;;20.60;99.90;;;;;;5075613;28;20086;-77
2023/06/20 00:05:02;;;;;;;13.48;8.35;;;20.70;99.90;;;;;;5078086;28;20028;-77
2023/06/20 00:07:28;;;;;;;11.80;7.72;;;20.60;99.90;;;;;;5081144;28;20089;-77
2023/06/20 00:09:54;;;;;;;12.77;7.50;;;20.60;99.90;;;;;;5102036;27;20033;-77
2023/06/20 00:12:19;;;;;;;10.93;7.95;;;20.40;99.90;;;;;;5074812;28;20059;-76
2023/06/20 00:14:45;;;;;;;13.45;8.30;;;20.30;99.90;;;;;;5083338;28;20089;-76
2023/06/20 00:17:10;;;;;;;11.73;8.40;;;20.50;99.90;;;;;;5078107;28;20040;-77
2023/06/20 00:19:36;;;;;;;11.88;7.78;;;20.50;99.90;;;;;;5081067;28;20028;-77
2023/06/20 00:22:05;;;;;;;12.43;8.13;;;20.50;99.90;;;;;;5080200;28;20414;-77
2023/06/20 00:24:33;;;;;;;12.38;7.53;;;20.40;99.90;;;;;;5082408;28;20029;-77
2023/06/20 00:27:03;;;;;;;11.25;7.88;;;20.40;99.90;;;;;;5083996;28;20107;-76
2023/06/20 00:29:29;;;;;;;11.38;7.85;;;20.30;99.90;;;;;;5084237;28;20128;-76
2023/06/20 00:31:55;;;;;;;12.93;7.75;;;20.30;99.90;;;;;;5077692;28;20373;-77
2023/06/20 00:34:20;;;;;;;13.98;7.97;;;20.30;99.90;;;;;;5114929;27;20061;-76
2023/06/20 00:36:46;;;;;;;10.70;7.95;;;20.00;99.90;;;;;;5075992;28;20090;-77
2023/06/20 00:39:12;;;;;;;11.43;8.10;;;20.00;99.90;;;;;;5076838;28;20060;-77
2023/06/20 00:41:38;;;;;;;13.77;8.75;;;20.00;99.90;;;;;;5078351;28;20042;-77
2023/06/20 00:44:05;;;;;;;12.70;7.85;;;20.00;99.90;;;;;;5080998;28;20035;-77
2023/06/20 00:46:32;;;;;;;12.57;7.80;;;19.90;99.90;;;;;;5082257;28;20638;-77
2023/06/20 00:48:59;;;;;;;12.57;8.18;;;19.90;99.90;;;;;;5085213;28;20047;-76
2023/06/20 00:51:28;;;;;;;13.45;8.27;;;19.80;99.90;;;;;;5088403;28;20120;-76
2023/06/20 00:53:54;;;;;;;13.85;8.23;;;19.90;99.90;;;;;;5080295;28;20452;-77
2023/06/20 00:56:20;;;;;;;11.95;7.80;;;20.10;99.90;;;;;;5073703;28;20745;-77
2023/06/20 00:58:46;;;;;;;11.90;8.10;;;20.10;99.90;;;;;;5069507;28;20044;-77
2023/06/20 01:01:12;;;;;;;12.82;8.80;;;20.00;99.90;;;;;;5075305;28;20047;-77
2023/06/20 01:03:38;;;;;;;14.60;8.48;;;20.10;99.90;;;;;;5080628;28;20106;-77
2023/06/20 01:06:20;;;;;;;11.13;7.80;;;20.10;99.90;;;;;;5076148;28;20037;-77
2023/06/20 01:08:57;;;;;;;13.35;8.23;;;20.20;99.90;;;;;;5070869;28;20021;-77
2023/06/20 01:11:52;;;;;;;12.10;8.38;;;20.20;99.90;;;;;;5080563;28;20021;-77
2023/06/20 01:14:42;;;;;;;12.70;8.50;;;20.20;99.90;;;;;;5078812;28;20040;-77
2023/06/20 01:17:38;;;;;;;14.23;8.60;;;20.20;99.90;;;;;;5081371;28;20066;-78
2023/06/20 01:20:13;;;;;;;14.73;8.75;;;19.90;99.90;;;;;;5066388;28;20052;-78
2023/06/20 01:23:01;;;;;;;16.02;8.18;;;20.00;99.90;;;;;;5074920;28;20037;-83
2023/06/20 01:25:54;;;;;;;19.73;8.40;;;20.50;99.90;;;;;;5110564;27;20036;-80
2023/06/20 01:28:53;;;;;;;14.82;7.57;;;20.80;99.90;;;;;;5080391;28;20177;-79
2023/06/20 01:31:28;;;;;;;17.70;7.15;;;20.60;99.90;;;;;;5075570;28;20054;-80
2023/06/20 01:33:59;;;;;;;10.55;7.20;;;20.50;99.90;;;;;;5081729;28;20040;-83
2023/06/20 01:36:34;;;;;;;11.80;7.45;;;20.30;99.90;;;;;;5079131;28;20115;-84
2023/06/20 01:39:07;;;;;;;16.27;7.47;;;20.30;99.90;;;;;;5077184;28;20024;-80
2023/06/20 01:41:37;;;;;;;13.50;8.10;;;20.20;99.90;;;;;;5080214;28;20115;-87
2023/06/20 01:44:06;;;;;;;13.52;7.53;;;20.10;99.90;;;;;;5075748;28;20122;-85
2023/06/20 01:46:35;;;;;;;12.25;7.25;;;20.10;99.90;;;;;;5083645;28;20088;-81
2023/06/20 01:49:02;;;;;;;11.55;7.88;;;20.00;99.90;;;;;;5076529;28;20488;-79
2023/06/20 01:51:30;;;;;;;12.75;7.68;;;19.90;99.90;;;;;;5075933;28;20072;-81
2023/06/20 01:53:57;;;;;;;11.98;8.07;;;19.90;99.90;;;;;;5082581;28;20036;-78
2023/06/20 01:56:26;;;;;;;13.27;7.85;;;19.90;99.90;;;;;;5066977;28;20029;-79
2023/06/20 01:58:53;;;;;;;11.65;7.88;;;19.80;99.90;;;;;;5071152;28;20036;-77
2023/06/20 02:01:20;;;;;;;11.07;7.47;;;19.70;99.90;;;;;;5085980;28;20040;-78
2023/06/20 02:03:47;;;;;;;12.15;8.10;;;19.60;99.90;;;;;;5077647;28;20032;-80
2023/06/20 02:06:15;;;;;;;13.68;7.55;;;19.50;99.90;;;;;;5069776;28;20035;-78
2023/06/20 02:08:42;;;;;;;12.32;7.93;;;19.30;99.90;;;;;;5088182;28;20387;-84
2023/06/20 02:11:09;;;;;;;12.02;7.95;;;19.20;99.90;;;;;;5076109;28;20081;-79
2023/06/20 02:13:36;;;;;;;11.38;7.40;;;19.20;99.90;;;;;;5083869;28;20031;-77
2023/06/20 02:16:06;;;;;;;15.52;7.60;;;19.10;99.90;;;;;;5083537;28;20104;-79
2023/06/20 02:18:32;;;;;;;12.00;7.43;;;19.00;99.90;;;;;;5080216;28;20042;-78
2023/06/20 02:21:04;;;;;;;14.10;7.85;;;19.00;99.90;;;;;;5080560;28;20036;-80
2023/06/20 02:23:31;;;;;;;13.73;7.90;;;18.90;99.90;;;;;;5085715;28;20043;-78
2023/06/20 02:26:07;;;;;;;15.20;8.18;;;18.80;99.90;;;;;;5116207;27;20032;-78
2023/06/20 02:28:36;;;;;;;16.45;8.27;;;18.70;99.90;;;;;;5084920;28;20108;-79
2023/06/20 02:31:05;;;;;;;13.30;9.00;;;18.60;99.90;;;;;;5075322;28;20026;-77
2023/06/20 02:33:32;;;;;;;18.85;8.88;;;18.50;99.90;;;;;;5092553;28;20032;-79
2023/06/20 02:36:01;;;;;;;21.08;10.18;;;18.50;99.90;;;;;;5089501;28;20020;-78
2023/06/20 02:38:27;;;;;;;20.00;9.93;;;18.40;99.90;;;;;;5092489;28;20043;-77
2023/06/20 02:40:53;;;;;;;14.02;9.10;;;18.40;99.90;;;;;;5091042;28;20032;-76
2023/06/20 02:43:18;;;;;;;20.20;9.85;;;18.30;99.90;;;;;;5123809;27;20151;-79
2023/06/20 02:45:50;;;;;;;15.90;9.57;;;18.40;99.90;;;;;;5092117;28;20107;-77
2023/06/20 02:48:44;;;;;;;14.35;8.93;;;18.30;99.90;;;;;;5071453;28;20085;-77
2023/06/20 02:51:36;;;;;;;16.00;9.43;;;18.30;99.90;;;;;;5071459;28;20035;-76
2023/06/20 02:54:16;;;;;;;18.23;8.60;;;18.40;99.90;;;;;;5082100;28;20035;-78
2023/06/20 02:56:46;;;;;;;17.70;9.35;;;18.40;99.90;;;;;;5078538;28;20086;-78
2023/06/20 02:59:13;;;;;;;16.80;9.23;;;18.40;99.90;;;;;;5090731;28;20476;-78
2023/06/20 03:01:44;;;;;;;18.13;9.50;;;18.50;99.90;;;;;;5085823;28;20491;-78
2023/06/20 03:04:10;;;;;;;19.15;9.30;;;18.50;99.90;;;;;;5071048;28;20477;-79
2023/06/20 03:06:37;;;;;;;15.70;9.00;;;18.60;99.90;;;;;;5075659;28;20576;-79
2023/06/20 03:09:04;;;;;;;18.30;9.77;;;18.70;99.90;;;;;;5088124;28;20380;-77
2023/06/20 03:11:30;;;;;;;14.45;9.15;;;18.70;99.90;;;;;;5087151;28;20065;-80
2023/06/20 03:13:56;;;;;;;13.60;9.07;;;18.70;99.90;;;;;;5088156;28;20366;-74
2023/06/20 03:16:26;;;;;;;13.55;8.98;;;18.80;99.90;;;;;;5117198;27;20035;-75
2023/06/20 03:18:52;;;;;;;15.48;8.60;;;18.80;99.90;;;;;;5109800;28;20043;-75
2023/06/20 03:21:19;;;;;;;13.57;8.70;;;18.90;99.90;;;;;;5110506;28;20023;-75
2023/06/20 03:23:45;;;;;;;13.88;8.40;;;18.90;99.90;;;;;;5114554;27;20032;-75
2023/06/20 03:26:11;;;;;;;13.68;8.75;;;18.90;99.90;;;;;;5096868;28;20077;-75
2023/06/20 03:28:36;;;;;;;14.45;8.68;;;18.90;99.90;;;;;;5091591;28;20058;-75
2023/06/20 03:31:02;;;;;;;19.83;9.02;;;18.90;99.90;;;;;;5087053;28;20097;-75
2023/06/20 03:33:27;;;;;;;16.92;10.30;;;18.90;99.90;;;;;;5108730;27;20036;-75
2023/06/20 03:35:54;;;;;;;13.45;9.65;;;18.80;99.90;;;;;;5084705;28;20086;-75
2023/06/20 03:38:19;;;;;;;18.25;9.95;;;18.80;99.90;;;;;;5085859;28;20032;-75
2023/06/20 03:40:45;;;;;;;16.88;10.07;;;18.90;99.90;;;;;;5090223;28;20043;-75
2023/06/20 03:43:11;;;;;;;14.80;8.65;;;18.90;99.90;;;;;;5083886;28;20024;-75
2023/06/20 03:45:36;;;;;;;16.05;9.38;;;18.80;99.90;;;;;;5103378;28;20036;-75
2023/06/20 03:48:02;;;;;;;14.73;9.18;;;18.80;99.90;;;;;;5111355;27;20060;-75
2023/06/20 03:50:28;;;;;;;18.17;9.85;;;18.80;99.90;;;;;;5091202;28;20024;-75
2023/06/20 03:52:53;;;;;;;14.63;8.82;;;18.80;99.90;;;;;;5088746;28;20043;-77
2023/06/20 03:55:19;;;;;;;19.55;9.98;;;18.70;99.90;;;;;;5086329;28;20072;-76
2023/06/20 03:57:44;;;;;;;17.05;9.40;;;18.80;99.90;;;;;;5076282;28;20031;-73
2023/06/20 04:00:12;;;;;;;15.23;9.40;;;18.80;99.90;;;;;;5093208;28;20032;-76
2023/06/20 04:02:41;;;;;;;13.95;9.70;;;18.80;99.90;;;;;;5091156;28;20016;-72
2023/06/20 04:05:08;;;;;;;18.57;9.80;;;18.80;99.90;;;;;;5089030;28;20581;-73
2023/06/20 04:07:35;;;;;;;18.38;9.75;;;18.80;99.90;;;;;;5087986;28;20381;-74
2023/06/20 04:10:01;;;;;;;17.08;9.27;;;18.70;99.90;;;;;;5110479;28;20039;-78
2023/06/20 04:12:26;;;;;;;16.20;9.13;;;18.60;99.90;;;;;;5110969;28;20027;-77
2023/06/20 04:14:53;;;;;;;14.27;8.80;;;18.60;99.90;;;;;;5084498;28;20034;-78
2023/06/20 04:17:19;;;;;;;13.93;8.23;;;18.50;99.90;;;;;;5088514;28;20027;-75
2023/06/20 04:19:45;;;;;;;10.95;7.28;;;18.60;99.90;;;;;;5106776;28;20027;-76
2023/06/20 04:22:12;;;;;;;14.90;7.55;;;18.70;99.90;;;;;;5098549;28;20040;-73
2023/06/20 04:24:38;;;;;;;13.05;8.60;;;18.70;99.90;;;;;;5094835;28;20058;-73
2023/06/20 04:27:04;;;;;;;14.13;9.30;;;18.70;99.90;;;;;;5096395;28;20471;-74
2023/06/20 04:29:30;;;;;;;12.50;7.35;;;18.80;99.90;;;;;;5075705;28;20068;-73
2023/06/20 04:31:56;;;;;;;13.27;7.60;;;18.80;99.90;;;;;;5070909;28;20512;-73
2023/06/20 04:34:23;;;;;;;13.85;8.05;;;18.90;99.90;;;;;;5078028;28;20465;-76
2023/06/20 04:36:54;;;;;;;14.15;8.55;;;18.80;99.90;;;;;;5070168;28;20032;-78
2023/06/20 04:39:19;;;;;;;14.80;8.27;;;18.80;99.90;;;;;;5068892;28;20599;-76
2023/06/20 04:41:45;;;;;;;18.67;9.30;;;18.90;99.90;;;;;;5101579;27;20532;-74
2023/06/20 04:44:10;;;;;;;15.90;10.38;;;18.90;99.90;;;;;;5075567;28;20107;-77
2023/06/20 04:46:36;;;;;;;22.58;11.20;;;18.90;99.90;;;;;;5088932;28;20055;-75
2023/06/20 04:49:02;;;;;;;18.02;10.65;;;18.90;99.90;;;;;;5087107;28;20047;-79
2023/06/20 04:51:27;;;;;;;16.33;10.50;;;18.90;99.90;;;;;;5087396;28;20614;-78
2023/06/20 04:53:53;;;;;;;15.77;10.18;;;18.80;99.90;;;;;;5088429;28;20068;-72
2023/06/20 04:56:20;;;;;;;15.95;9.88;;;18.80;99.90;;;;;;5083314;28;20472;-74
2023/06/20 04:58:46;;;;;;;15.02;8.15;;;18.90;99.90;;;;;;5087132;28;20032;-78
2023/06/20 05:01:14;;;;;;;14.73;8.27;;;18.90;99.90;;;;;;5086865;28;20036;-74
2023/06/20 05:03:42;;;;;;;10.48;6.82;;;18.90;99.90;;;;;;5078561;28;20021;-75
2023/06/20 05:06:08;;;;;;;10.57;7.53;;;18.90;99.90;;;;;;5068527;28;20413;-73
2023/06/20 05:08:33;;;;;;;10.23;7.15;;;18.90;99.90;;;;;;5077191;28;20032;-73
2023/06/20 05:10:59;;;;;;;11.98;7.50;;;19.00;99.90;;;;;;5088555;28;20084;-81
2023/06/20 05:13:25;;;;;;;9.77;6.55;;;19.20;99.90;;;;;;5075477;28;20488;-74
2023/06/20 05:15:50;;;;;;;12.57;6.30;;;19.40;99.90;;;;;;5088154;28;20032;-78
2023/06/20 05:18:16;;;;;;;11.90;7.35;;;19.60;99.90;;;;;;5124388;27;20040;-76
2023/06/20 05:20:42;;;;;;;13.30;8.35;;;19.80;99.90;;;;;;5077046;28;20060;-73
2023/06/20 05:23:07;;;;;;;13.63;8.18;;;20.00;99.90;;;;;;5073253;28;20067;-74
2023/06/20 05:25:34;;;;;;;10.20;6.80;;;20.20;99.90;;;;;;5087784;28;20028;-72
2023/06/20 05:28:00;;;;;;;12.27;7.30;;;20.40;99.90;;;;;;5086752;28;20115;-79
2023/06/20 05:30:25;;;;;;;13.90;7.30;;;20.50;99.90;;;;;;5067614;28;20227;-70
2023/06/20 05:32:52;;;;;;;16.13;8.65;;;20.60;99.90;;;;;;5080106;28;20031;-75
2023/06/20 05:35:17;;;;;;;14.07;8.45;;;20.80;99.90;;;;;;5068161;28;20032;-78
2023/06/20 05:37:46;;;;;;;13.43;8.25;;;20.90;99.90;;;;;;5111883;27;20036;-79
2023/06/20 05:40:12;;;;;;;13.20;5.40;;;20.90;99.90;;;;;;5086701;28;20062;-74
2023/06/20 05:42:37;;;;;;;9.30;4.28;;;20.80;99.90;;;;;;5078906;28;20525;-78
2023/06/20 05:45:03;;;;;;;7.95;4.43;;;20.90;99.90;;;;;;5087870;28;20112;-74
2023/06/20 05:47:29;;;;;;;11.27;5.07;;;20.90;99.90;;;;;;5088224;28;20051;-73
2023/06/20 05:49:57;;;;;;;8.85;4.68;;;21.00;99.90;;;;;;5084916;28;20044;-72
2023/06/20 05:52:22;;;;;;;8.10;4.20;;;21.20;99.90;;;;;;5086392;28;20032;-72
2023/06/20 05:54:48;;;;;;;9.52;5.10;;;21.30;99.90;;;;;;5086471;28;20136;-74
2023/06/20 05:57:14;;;;;;;10.00;5.00;;;21.40;99.90;;;;;;5081961;28;20032;-74
2023/06/20 05:59:39;;;;;;;8.07;4.40;;;21.50;99.90;;;;;;5096483;28;20031;-75
2023/06/20 06:02:06;;;;;;;8.10;4.43;;;21.60;99.90;;;;;;5098042;28;20806;-82
2023/06/20 06:04:33;;;;;;;10.05;4.82;;;21.60;99.90;;;;;;5081306;28;20030;-77
2023/06/20 06:06:59;;;;;;;7.80;3.63;;;21.80;99.90;;;;;;5087295;28;20032;-74
2023/06/20 06:09:24;;;;;;;10.25;3.22;;;21.80;99.90;;;;;;5087889;28;20093;-72
2023/06/20 06:11:50;;;;;;;6.13;2.90;;;22.00;99.90;;;;;;5087710;28;20063;-76
2023/06/20 06:14:16;;;;;;;5.50;3.22;;;22.10;99.90;;;;;;5100379;28;20036;-76
2023/06/20 06:16:44;;;;;;;5.10;2.67;;;22.30;99.90;;;;;;5080755;28;20035;-75
2023/06/20 06:19:10;;;;;;;7.30;2.38;;;22.20;99.90;;;;;;5101919;28;20047;-75
2023/06/20 06:21:35;;;;;;;6.15;2.38;;;22.30;99.90;;;;;;5068613;28;20033;-74
2023/06/20 06:24:01;;;;;;;9.57;2.85;;;22.50;99.90;;;;;;5080923;28;20059;-74
2023/06/20 06:26:27;;;;;;;7.75;2.65;;;22.40;99.90;;;;;;5088605;28;20640;-76
2023/06/20 06:28:53;;;;;;;7.95;2.90;;;22.30;99.90;;;;;;5083327;28;20040;-75
2023/06/20 06:31:26;;;;;;;8.93;2.63;;;22.30;99.90;;;;;;5087770;28;20107;-72
2023/06/20 06:33:54;;;;;;;5.88;2.67;;;22.20;99.90;;;;;;5097213;28;20506;-72
2023/06/20 06:36:22;;;;;;;10.40;2.65;;;22.20;99.90;;;;;;5094389;28;20098;-72
2023/06/20 06:38:49;;;;;;;8.20;2.67;;;22.20;99.90;;;;;;5088356;28;20040;-71
2023/06/20 06:41:18;;;;;;;5.95;2.72;;;22.20;99.90;;;;;;5087486;28;20110;-73
2023/06/20 06:43:44;;;;;;;7.35;2.88;;;22.30;99.90;;;;;;5095954;28;20024;-71
2023/06/20 06:46:10;;;;;;;15.30;3.22;;;22.40;99.90;;;;;;5107954;28;20056;-74
2023/06/20 06:48:36;;;;;;;7.45;2.78;;;22.40;99.90;;;;;;5109057;28;20036;-72
2023/06/20 06:51:03;;;;;;;6.82;2.83;;;22.50;99.90;;;;;;5106587;28;20105;-72
2023/06/20 06:53:29;;;;;;;5.10;3.08;;;22.60;99.90;;;;;;5090779;28;20061;-76
2023/06/20 06:55:54;;;;;;;10.95;3.55;;;22.70;99.90;;;;;;5084671;28;20471;-76
2023/06/20 06:58:20;;;;;;;8.25;3.45;;;22.70;99.90;;;;;;5080926;28;20108;-76
2023/06/20 07:00:46;;;;;;;6.57;2.85;;;22.80;99.90;;;;;;5079729;28;20039;-74
2023/06/20 07:03:11;;;;;;;6.95;3.33;;;23.00;99.90;;;;;;5074759;28;20720;-75
2023/06/20 07:05:37;;;;;;;9.15;3.38;;;23.10;99.90;;;;;;5089192;28;20031;-74
2023/06/20 07:08:03;;;;;;;6.80;3.65;;;23.20;99.90;;;;;;5090217;28;20030;-75
2023/06/20 07:10:29;;;;;;;13.15;3.35;;;23.20;99.90;;;;;;5084592;28;20087;-76
2023/06/20 07:12:55;;;;;;;8.77;3.60;;;23.30;99.90;;;;;;5120817;27;20119;-78
2023/06/20 07:15:20;;;;;;;6.35;3.20;;;23.30;99.90;;;;;;5072445;28;20506;-71
2023/06/20 07:17:46;;;;;;;8.23;3.10;;;23.50;99.90;;;;;;5086527;28;20040;-76
2023/06/20 07:20:12;;;;;;;7.63;3.58;;;23.90;99.90;;;;;;5090172;28;20032;-76
2023/06/20 07:22:37;;;;;;;8.30;3.60;;;23.90;99.90;;;;;;5081175;28;20628;-79
2023/06/20 07:25:04;;;;;;;9.43;4.45;;;23.80;99.90;;;;;;5089783;28;20463;-76
2023/06/20 07:27:30;;;;;;;5.80;3.30;;;23.80;99.90;;;;;;5087160;28;20152;-76
2023/06/20 07:29:55;;;;;;;6.88;3.65;;;23.80;99.90;;;;;;5091628;28;20489;-77
2023/06/20 07:32:21;;;;;;;8.82;3.60;;;23.80;99.90;;;;;;5087964;28;20028;-79
2023/06/20 07:34:48;;;;;;;8.32;3.70;;;23.80;99.90;;;;;;5092977;28;20473;-74
2023/06/20 07:37:14;;;;;;;6.65;3.65;;;24.00;99.90;;;;;;5089718;28;20433;-74
2023/06/20 07:39:42;;;;;;;8.88;3.80;;;24.10;99.90;;;;;;5090360;28;20681;-78
2023/06/20 07:42:11;;;;;;;7.50;3.65;;;24.20;99.90;;;;;;5090415;28;20043;-81
2023/06/20 07:44:36;;;;;;;9.13;4.20;;;24.30;99.90;;;;;;5085204;28;20039;-79
2023/06/20 07:47:02;;;;;;;12.43;4.20;;;24.50;99.90;;;;;;5091151;28;20048;-78
2023/06/20 07:49:28;;;;;;;10.85;3.65;;;24.40;99.90;;;;;;5090341;28;20480;-75
2023/06/20 07:51:54;;;;;;;9.57;4.35;;;24.60;99.90;;;;;;5073664;28;20047;-76
2023/06/20 07:54:20;;;;;;;9.43;4.25;;;24.80;99.90;;;;;;5096537;28;20028;-81
2023/06/20 07:56:45;;;;;;;11.05;4.18;;;25.00;99.90;;;;;;5101626;28;20453;-80
2023/06/20 07:59:11;;;;;;;6.20;4.00;;;25.00;99.90;;;;;;5090694;28;20039;-75
2023/06/20 08:01:37;;;;;;;8.45;3.80;;;25.20;99.90;;;;;;5119019;27;20036;-74
2023/06/20 08:04:05;;;;;;;14.38;4.50;;;25.30;99.90;;;;;;5086986;28;20024;-76
2023/06/20 08:06:31;;;;;;;7.65;4.07;;;25.50;99.90;;;;;;5105021;28;20090;-79
2023/06/20 08:08:57;;;;;;;6.90;4.22;;;25.50;99.90;;;;;;5089810;28;20484;-77
2023/06/20 08:11:24;;;;;;;8.70;4.70;;;25.60;99.90;;;;;;5087786;28;20020;-75
2023/06/20 08:13:52;;;;;;;10.77;4.72;;;25.70;99.90;;;;;;5091419;28;20032;-72
2023/06/20 08:16:18;;;;;;;7.65;4.35;;;25.70;99.90;;;;;;5096029;28;20086;-78
2023/06/20 08:18:43;;;;;;;9.15;4.20;;;25.90;99.90;;;;;;5110902;28;20059;-81
2023/06/20 08:21:09;;;;;;;12.02;4.38;;;25.90;99.90;;;;;;5101726;27;20044;-79
2023/06/20 08:23:35;;;;;;;11.18;4.50;;;26.00;99.90;;;;;;5069762;28;20909;-78
2023/06/20 08:26:01;;;;;;;8.60;4.75;;;26.00;99.90;;;;;;5077641;28;20487;-79
2023/06/20 08:28:26;;;;;;;10.10;4.65;;;25.80;99.90;;;;;;5089772;28;20039;-80
2023/06/20 08:30:53;;;;;;;12.35;5.30;;;25.80;99.90;;;;;;5088696;28;20031;-78
2023/06/20 08:33:19;;;;;;;12.57;5.05;;;26.00;99.90;;;;;;5088577;28;20165;-81
2023/06/20 08:35:48;;;;;;;11.32;5.30;;;26.00;99.90;;;;;;5107850;28;20039;-82
2023/06/20 08:38:14;;;;;;;10.93;4.70;;;26.20;99.90;;;;;;5109913;28;20031;-82
2023/06/20 08:40:40;;;;;;;7.78;4.63;;;26.30;99.90;;;;;;5089820;28;20054;-73
2023/06/20 08:43:06;;;;;;;10.40;4.63;;;26.40;99.90;;;;;;5089865;28;20388;-78
2023/06/20 08:45:32;;;;;;;9.52;4.80;;;26.60;99.90;;;;;;5104465;28;20030;-77
2023/06/20 08:47:58;;;;;;;12.68;5.00;;;26.80;99.90;;;;;;5109848;28;20046;-78
2023/06/20 08:50:28;;;;;;;10.40;5.35;;;26.80;99.90;;;;;;5069594;28;20036;-81
2023/06/20 08:52:55;;;;;;;11.48;5.15;;;26.90;99.90;;;;;;5084756;28;20378;-81
2023/06/20 08:55:22;;;;;;;11.00;4.72;;;26.90;99.90;;;;;;5101942;28;20039;-75
2023/06/20 08:57:51;;;;;;;9.13;5.35;;;26.90;99.90;;;;;;5091787;28;20020;-77
2023/06/20 09:00:20;;;;;;;13.03;5.37;;;26.90;99.90;;;;;;5089290;28;20036;-83
2023/06/20 09:02:50;;;;;;;7.07;5.10;;;27.10;99.90;;;;;;5088774;28;20120;-77
2023/06/20 09:05:16;;;;;;;10.05;5.25;;;27.20;99.90;;;;;;5101529;28;20205;-79
2023/06/20 09:07:43;;;;;;;10.50;5.50;;;27.30;99.90;;;;;;5109675;28;20103;-79
2023/06/20 09:10:17;;;;;;;9.75;4.88;;;27.50;99.90;;;;;;5091713;28;20028;-78
2023/06/20 09:12:58;;;;;;;11.57;5.90;;;27.70;99.90;;;;;;5087848;28;20473;-78
2023/06/20 09:15:25;;;;;;;12.93;5.45;;;27.70;99.90;;;;;;5114424;27;20027;-77
2023/06/20 09:17:56;;;;;;;12.90;5.28;;;27.70;99.40;;;;;;5089573;28;20078;-85
2023/06/20 09:20:30;;;;;;;8.52;5.18;;;27.70;99.90;;;;;;5087524;28;20032;-81
2023/06/20 09:22:56;;;;;;;17.23;6.10;;;27.80;99.20;;;;;;5089493;28;20032;-82
2023/06/20 09:33:37;;;;;;;11.20;5.60;;;28.00;95.70;;;;;;4970624;28;20173;-71
2023/06/20 09:36:12;;;;;;;14.00;5.63;;;27.90;96.70;;;;;;4989303;28;20036;-76
2023/06/20 09:38:42;;;;;;;12.95;5.80;;;28.10;95.70;;;;;;4989415;28;20034;-73
2023/06/20 09:41:07;;;;;;;11.57;5.30;;;28.10;96.30;;;;;;4986598;28;20437;-73
2023/06/20 09:43:33;;;;;;;13.40;5.75;;;28.00;95.10;;;;;;4987726;28;20026;-74
2023/06/20 09:45:59;;;;;;;13.48;6.03;;;28.00;95.90;;;;;;4988713;28;20040;-74
2023/06/20 09:48:26;;;;;;;13.50;6.50;;;28.20;95.20;;;;;;4988141;28;20042;-78
2023/06/20 09:50:54;;;;;;;8.20;4.88;;;28.30;94.60;;;;;;4987727;28;20050;-74
2023/06/20 09:53:27;;;;;;;11.35;5.85;;;28.30;93.50;;;;;;4987726;28;20026;-78
2023/06/20 09:55:57;;;;;;;12.65;6.10;;;28.60;93.80;;;;;;4988805;28;20025;-74
2023/06/20 09:58:25;;;;;;;9.38;5.47;;;28.70;92.00;;;;;;4983586;28;20038;-75
2023/06/20 10:00:51;;;;;;;10.63;5.95;;;28.90;91.40;;;;;;4987130;28;20038;-73
2023/06/20 10:03:18;;;;;;;9.90;5.90;;;29.10;90.10;;;;;;4986994;28;20046;-73
2023/06/20 10:05:46;;;;;;;10.18;6.15;;;29.20;92.10;;;;;;4989202;28;20726;-74
2023/06/20 10:08:13;;;;;;;10.07;5.80;;;29.20;90.50;;;;;;4987567;28;20046;-74
2023/06/20 10:10:38;;;;;;;11.27;6.00;;;29.30;91.20;;;;;;4982984;28;20027;-75
2023/06/20 10:13:05;;;;;;;9.68;5.75;;;29.50;86.00;;;;;;4985632;28;20471;-76
2023/06/20 10:15:30;;;;;;;10.25;5.40;;;29.60;86.80;;;;;;4984695;28;20463;-73
2023/06/20 10:17:56;;;;;;;9.00;5.55;;;29.70;88.00;;;;;;4987668;28;20045;-76
2023/06/20 10:20:33;;;;;;;11.18;5.88;;;30.00;85.10;;;;;;4985089;28;20049;-74
2023/06/20 10:23:04;;;;;;;11.43;5.78;;;30.00;86.10;;;;;;4987501;28;20042;-74
2023/06/20 10:25:31;;;;;;;16.80;5.55;;;29.90;82.30;;;;;;4984842;28;20034;-74
2023/06/20 10:28:00;;;;;;;9.95;5.80;;;29.90;85.60;;;;;;4986868;28;20495;-74
2023/06/20 10:30:50;;;;;;;13.52;5.47;;;30.00;84.60;;;;;;4983238;28;20478;-73
2023/06/20 10:33:47;;;;;;;9.65;6.10;;;30.20;85.70;;;;;;5005227;28;20069;-76
2023/06/20 10:36:13;;;;;;;11.80;5.70;;;30.00;85.10;;;;;;4991416;28;20049;-76
2023/06/20 10:38:59;;;;;;;13.65;6.18;;;29.90;82.80;;;;;;5008079;28;20053;-75
2023/06/20 10:41:29;;;;;;;10.75;5.22;;;29.70;83.20;;;;;;5011534;28;20874;-71
2023/06/20 10:43:56;;;;;;;15.30;6.00;;;29.60;81.10;;;;;;5011514;28;20049;-76
2023/06/20 10:46:29;;;;;;;8.75;5.18;;;29.60;81.70;;;;;;5011565;28;20034;-73
2023/06/20 10:48:54;;;;;;;9.15;5.50;;;29.70;81.30;;;;;;5011373;28;20038;-77
2023/06/20 10:51:20;;;;;;;12.20;5.75;;;29.80;79.80;;;;;;5011522;28;20033;-76
2023/06/20 10:53:46;;;;;;;10.30;5.15;;;29.80;80.20;;;;;;5012353;28;20470;-75
2023/06/20 10:56:22;;;;;;;12.95;6.22;;;30.20;78.10;;;;;;5010736;28;20531;-79
2023/06/20 10:58:48;;;;;;;9.48;5.70;;;30.60;72.70;;;;;;5011345;28;20104;-78
2023/06/20 11:01:17;;;;;;;13.38;5.57;;;30.50;75.30;;;;;;5010127;28;20485;-74
2023/06/20 11:03:45;;;;;;;11.25;5.28;;;30.70;76.90;;;;;;5010860;28;20054;-74
2023/06/20 11:06:17;;;;;;;17.40;5.75;;;30.80;70.50;;;;;;5011167;28;20103;-74
2023/06/20 11:08:45;;;;;;;9.93;5.50;;;31.10;75.50;;;;;;5012137;28;20063;-78
2023/06/20 11:11:10;;;;;;;8.20;5.72;;;31.30;72.90;;;;;;5004561;28;20143;-73
2023/06/20 11:13:43;;;;;;;11.85;5.50;;;31.30;74.10;;;;;;4996337;28;20470;-71
2023/06/20 11:16:18;;;;;;;11.30;5.28;;;31.70;73.70;;;;;;5004411;28;20857;-73
2023/06/20 11:18:43;;;;;;;10.25;5.93;;;31.80;73.70;;;;;;5003095;28;20042;-73
2023/06/20 11:21:09;;;;;;;11.60;5.35;;;32.00;70.60;;;;;;5004384;28;20030;-71
2023/06/20 11:23:38;;;;;;;9.60;5.15;;;31.70;70.40;;;;;;5005404;28;20038;-71
2023/06/20 11:26:04;;;;;;;11.27;5.60;;;31.30;69.30;;;;;;5006941;28;20038;-72
2023/06/20 11:28:31;;;;;;;21.33;5.63;;;31.20;70.90;;;;;;5006354;28;20218;-75
2023/06/20 11:31:07;;;;;;;10.00;5.80;;;31.50;68.70;;;;;;5003960;28;20030;-73
2023/06/20 11:33:35;;;;;;;11.02;5.75;;;31.20;73.30;;;;;;5004470;28;20044;-76
2023/06/20 11:36:00;;;;;;;8.82;5.45;;;31.30;69.00;;;;;;5004750;28;20033;-75
2023/06/20 11:38:28;;;;;;;12.90;6.28;;;31.30;69.50;;;;;;5003753;28;20046;-75
2023/06/20 11:41:03;;;;;;;10.63;5.47;;;31.20;70.80;;;;;;5001601;28;20048;-77
2023/06/20 11:43:36;;;;;;;10.75;6.10;;;31.50;68.90;;;;;;5013714;28;20504;-77
2023/06/20 11:46:02;;;;;;;7.80;4.95;;;31.80;68.40;;;;;;5031156;28;20029;-78
2023/06/20 11:48:29;;;;;;;15.85;6.05;;;32.10;66.20;;;;;;5005749;28;20100;-75
2023/06/20 11:50:57;;;;;;;9.10;5.80;;;32.60;67.40;;;;;;5010105;28;20033;-77
2023/06/20 11:53:34;;;;;;;19.70;5.82;;;32.80;67.80;;;;;;5009611;28;20026;-75
2023/06/20 11:56:03;;;;;;;12.98;6.25;;;32.70;63.60;;;;;;5008423;28;20073;-71
2023/06/20 11:58:35;;;;;;;12.40;6.05;;;32.70;64.40;;;;;;5007338;28;20239;-72
2023/06/20 12:01:10;;;;;;;16.50;6.70;;;32.60;65.10;;;;;;5019287;28;20044;-71
2023/06/20 12:03:41;;;;;;;15.65;6.20;;;32.20;66.60;;;;;;5010478;28;20113;-76
2023/06/20 12:06:32;;;;;;;11.68;6.35;;;31.70;66.80;;;;;;5009905;28;20104;-72
2023/06/20 12:08:59;;;;;;;22.77;6.57;;;32.00;66.50;;;;;;5010183;28;20034;-76
2023/06/20 12:11:27;;;;;;;16.80;6.75;;;32.30;65.00;;;;;;5008560;28;20038;-73
2023/06/20 12:13:52;;;;;;;11.32;6.07;;;32.60;65.60;;;;;;5010711;28;20157;-76
2023/06/20 12:16:22;;;;;;;12.35;6.53;;;32.40;65.20;;;;;;5006794;28;20491;-77
2023/06/20 12:18:48;;;;;;;11.48;6.43;;;32.30;66.60;;;;;;4993247;28;20510;-75
2023/06/20 12:21:22;;;;;;;13.88;6.10;;;32.20;65.40;;;;;;5006134;28;20393;-76
2023/06/20 12:23:48;;;;;;;11.30;5.78;;;32.20;63.70;;;;;;5006162;28;20026;-76
2023/06/20 12:26:14;;;;;;;13.82;6.13;;;32.60;62.00;;;;;;5010019;28;20105;-77
2023/06/20 12:28:41;;;;;;;10.40;6.68;;;32.80;62.00;;;;;;5009833;28;20042;-77
2023/06/20 12:31:07;;;;;;;13.98;6.50;;;32.80;62.00;;;;;;5010310;28;20172;-77
2023/06/20 12:33:33;;;;;;;12.32;6.25;;;32.30;61.40;;;;;;5008238;28;20121;-75
2023/06/20 12:35:59;;;;;;;13.52;6.60;;;31.90;63.20;;;;;;5009430;28;20109;-72
2023/06/20 12:38:25;;;;;;;15.45;6.43;;;31.70;63.00;;;;;;5005690;28;20073;-73
2023/06/20 12:40:52;;;;;;;12.73;6.38;;;31.70;66.30;;;;;;5009341;28;20385;-71
2023/06/20 12:43:18;;;;;;;15.82;6.20;;;31.70;61.80;;;;;;5017579;28;20064;-76
2023/06/20 12:45:46;;;;;;;13.68;6.05;;;31.30;63.60;;;;;;5015930;28;20116;-77
2023/06/20 12:48:11;;;;;;;17.48;6.93;;;31.00;66.00;;;;;;5009101;28;20037;-74
2023/06/20 12:50:37;;;;;;;15.70;6.90;;;31.00;65.10;;;;;;5009743;28;20509;-75